Dennisville, NJ (08214)

3:44 AM EST on March 04, 2015 (GMT -0500)
Historic Dennisville | Change Station
CLOSE
Current Station
Personal Weather Station
Location: Dennisville, NJ
Elevation: 20 ft
Nearby Weather Stations
Active Advisory: Winter Storm Watch Active Notice: Public Information Statement

Elev 20 ft 39.19 °N, 74.82 °W | Updated 11 seconds ago

Overcast
Overcast
38.8 °F
Feels Like 39 °F
N
3.0
Wind Variable Wind from WSW
Gusts 7.0 mph

Today
High -- | Low -- °F
--% Chance of Precip.
Yesterday
High -- | Low -- °F
Precip. -- in
6:27 AM 5:54 PM
Waxing Gibbous, 98% visible
Pressure 29.83 in
Visibility 5.0 miles
Clouds Overcast 700 ft
Windchill 39 °F
Dew Point 38 °F
Humidity 98%
Rainfall 0.00 in
Snow Depth Not available.
UV 0 out of 12
Pollen .60 out of 12
Air Quality Not available.
Flu Activity Not available.
METAR KWWD 040835Z AUTO 24009KT 5SM OVC007 05/03 A2983 RMK AO1

More Conditions Fewer Conditions

Pressure 29.83 in
Visibility 5.0 miles
Clouds Overcast 700 ft
Windchill 39 °F
Dew Point 38 °F
Humidity 98%
Rainfall 0.00 in
Snow Depth Not available.
UV 0 out of 12
Pollen .60 out of 12
Air Quality Not available.
Flu Activity Not available.
METAR KWWD 040835Z AUTO 24009KT 5SM OVC007 05/03 A2983 RMK AO1

More Conditions Fewer Conditions

10-Day Weather Forecast

Almanac

Astronomy

Mar. 04, 2015 Rise Set
Actual Time
Civil Twilight
Nautical Twilight
Astronomical Twilight
Moon
Length of Visible Light
Length of Day
Tomorrow will be .
, % of the Moon is Illuminated

Today's Extremes

State Highs State Lows

Community

WunderPhotos

Upload Photos

1,802,416 photos uploaded!

WunderBlogs® & News

Nearby

Air Quality

  Air Quality AQ Index Pollutant
Not available.

Snow Depth

Station Depth Elevation

Earthquake Activity

City Distance Mag. Time & Date
Minimum magnitude displayed is 2.5.

Coastal Water Temperatures

Place Temperature

Nearby Weather Stations

Winter Storm Watch
Statement as of 12:58 AM EST on March 04, 2015

... Winter Storm Watch remains in effect from late tonight through
Thursday evening...

* hazard types... heavy snow.

* Snow and sleet accumulations... four to 8 inches possible. The
amount of snow accumulation Wednesday night and Thursday will
depend on how quickly the rain changes to snow and if sleet
lasts longer during the transition.

* Timing... rain late Wednesday should change to snow... possibly
heavy at times... late Wednesday night and continue Thursday.

* Impacts... there is the potential for widespread significant
travel impacts late Wednesday night and Thursday.

Precautionary/preparedness actions...

A Winter Storm Watch means there is a potential for significant
snow and sleet accumulations that may impact travel. Continue to
monitor the latest forecasts.